Time;durP1;ratioP1;P1;durP2;ratioP2;P2;SDS_P1;SDS_P2;PMS_P1;PMS_P2;Temp;Humidity;BMP_temperature;BMP_pressure;BME280_temperature;BME280_humidity;BME280_pressure;Samples;Min_cycle;Max_cycle;Signal;HPM_P1;HPM_P2
2022/05/10 00:01:44;;;;;;;6.78;4.32;;;;;;;15.37;72.87;99935.13;4460381;32;34017;-70
2022/05/10 00:04:13;;;;;;;5.32;3.45;;;;;;;15.67;72.14;99938.84;4454710;32;35035;-71
2022/05/10 00:06:43;;;;;;;5.25;3.35;;;;;;;15.60;71.40;99931.13;4455696;32;35020;-70
2022/05/10 00:09:13;;;;;;;5.22;3.67;;;;;;;15.84;70.30;99935.00;4456228;32;33561;-70
2022/05/10 00:11:41;;;;;;;5.68;3.35;;;;;;;15.70;71.75;99937.91;4460931;32;34780;-71
2022/05/10 00:14:09;;;;;;;7.35;3.25;;;;;;;15.98;70.69;99940.81;4470916;32;34999;-70
2022/05/10 00:16:41;;;;;;;7.00;4.03;;;;;;;15.57;72.52;99931.22;4450647;32;34622;-70
2022/05/10 00:19:12;;;;;;;5.75;3.90;;;;;;;15.55;72.25;99928.62;4450648;32;34320;-70
2022/05/10 00:21:42;;;;;;;4.65;3.33;;;;;;;15.49;71.44;99929.59;4455929;32;33914;-70
2022/05/10 00:24:10;;;;;;;5.40;3.53;;;;;;;15.91;71.84;99942.69;4456828;32;35778;-71
2022/05/10 00:26:38;;;;;;;6.32;3.92;;;;;;;15.63;72.12;99931.91;4469804;32;35144;-70
2022/05/10 00:29:05;;;;;;;6.95;3.37;;;;;;;15.73;72.16;99933.44;4470795;32;34270;-71
2022/05/10 00:31:34;;;;;;;6.60;3.67;;;;;;;15.58;71.74;99928.53;4469317;32;34074;-70
2022/05/10 00:34:02;;;;;;;5.57;3.47;;;;;;;15.59;72.57;99930.28;4453388;32;35152;-70
2022/05/10 00:36:30;;;;;;;5.50;3.78;;;;;;;15.99;70.91;99913.66;4455148;32;34566;-70
2022/05/10 00:38:59;;;;;;;7.12;3.97;;;;;;;16.15;70.67;99915.88;4456848;32;34169;-70
2022/05/10 00:41:34;;;;;;;6.37;3.53;;;;;;;15.42;70.93;99917.50;4464914;32;33781;-70
2022/05/10 00:44:08;;;;;;;4.57;3.25;;;;;;;15.90;71.08;99903.34;4456931;32;35146;-70
2022/05/10 00:46:40;;;;;;;5.18;3.65;;;;;;;16.06;69.98;99909.97;4455447;32;35345;-70
2022/05/10 00:49:25;;;;;;;5.85;3.65;;;;;;;15.64;71.09;99907.41;4456872;32;33720;-71
2022/05/10 00:52:07;;;;;;;6.45;3.60;;;;;;;16.10;69.19;99911.63;4448601;32;33762;-71
2022/05/10 00:54:52;;;;;;;4.85;3.45;;;;;;;14.93;71.95;99914.12;4441294;32;35111;-71
2022/05/10 00:57:40;;;;;;;4.82;3.40;;;;;;;15.09;72.49;99911.22;4440786;32;34479;-71
2022/05/10 01:00:29;;;;;;;5.40;3.28;;;;;;;15.39;71.24;99901.84;4441357;32;33930;-70
2022/05/10 01:03:30;;;;;;;5.15;3.42;;;;;;;15.26;71.41;99901.22;4453968;32;33989;-71
2022/05/10 01:06:04;;;;;;;4.50;3.28;;;;;;;15.70;68.84;99890.66;4454013;32;35938;-71
2022/05/10 01:08:39;;;;;;;5.10;3.30;;;;;;;14.65;72.94;99890.19;4455185;32;34534;-70
2022/05/10 01:11:20;;;;;;;5.45;3.30;;;;;;;14.85;71.58;99889.81;4440973;32;33426;-70
2022/05/10 01:14:30;;;;;;;4.78;3.35;;;;;;;15.02;71.56;99889.50;4453836;32;34813;-71
2022/05/10 01:16:58;;;;;;;5.55;3.67;;;;;;;14.46;73.24;99884.38;4450461;32;35175;-71
2022/05/10 01:19:26;;;;;;;4.90;3.40;;;;;;;13.98;74.85;99879.09;4453235;32;35291;-71
2022/05/10 01:22:15;;;;;;;5.10;3.47;;;;;;;14.94;71.23;99881.75;4459286;32;34395;-71
2022/05/10 01:25:06;;;;;;;5.35;3.47;;;;;;;13.97;75.05;99882.59;4470484;32;34028;-71
2022/05/10 01:27:40;;;;;;;6.50;3.10;;;;;;;15.21;70.62;99876.84;4454923;32;35891;-70
2022/05/10 01:30:12;;;;;;;5.78;3.87;;;;;;;14.70;71.96;99874.38;4469587;32;34650;-70
2022/05/10 01:35:57;;;;;;;6.10;3.65;;;;;;;14.18;74.91;99874.38;4454980;32;34601;-72
2022/05/10 01:38:33;;;;;;;6.32;3.60;;;;;;;14.07;75.42;99878.94;4454288;32;34939;-70
2022/05/10 01:41:09;;;;;;;5.60;3.47;;;;;;;13.74;77.44;99870.72;4461390;32;35394;-70
2022/05/10 01:43:42;;;;;;;6.40;4.20;;;;;;;14.11;76.13;99867.53;4455921;32;34071;-70
2022/05/10 01:46:14;;;;;;;6.10;3.78;;;;;;;14.38;75.18;99867.94;4456234;32;34841;-70
2022/05/10 01:48:45;;;;;;;5.22;3.25;;;;;;;14.96;72.69;99869.50;4456407;32;34533;-70
2022/05/10 01:51:23;;;;;;;5.15;3.53;;;;;;;14.72;73.84;99872.59;4469634;32;34553;-70
2022/05/10 01:53:50;;;;;;;5.87;3.65;;;;;;;15.07;72.28;99865.78;4454056;32;33326;-71
2022/05/10 01:56:22;;;;;;;5.30;3.70;;;;;;;15.19;71.89;99868.12;4469152;32;33931;-70
2022/05/10 01:58:51;;;;;;;5.57;3.90;;;;;;;14.32;75.76;99860.19;4453449;32;34954;-71
2022/05/10 02:01:32;;;;;;;6.15;3.33;;;;;;;14.38;75.69;99867.94;4453253;32;34469;-71
2022/05/10 02:04:07;;;;;;;4.95;3.35;;;;;;;14.02;77.40;99859.81;4454933;32;33459;-70
2022/05/10 02:06:54;;;;;;;6.45;3.97;;;;;;;15.07;73.31;99864.03;4455458;32;34764;-70
2022/05/10 02:09:39;;;;;;;4.97;3.47;;;;;;;14.89;74.06;99864.41;4470023;32;35055;-70
2022/05/10 02:12:11;;;;;;;5.90;3.95;;;;;;;15.22;72.07;99857.59;4440255;32;35313;-71
2022/05/10 02:14:47;;;;;;;5.95;3.80;;;;;;;14.29;75.28;99855.00;4440744;32;34447;-70
2022/05/10 02:17:33;;;;;;;8.70;3.77;;;;;;;14.23;74.62;99856.84;4445409;32;34534;-70
2022/05/10 02:20:11;;;;;;;4.93;3.53;;;;;;;14.95;71.84;99870.38;4467044;32;35027;-70
2022/05/10 02:22:59;;;;;;;5.75;3.58;;;;;;;14.96;71.59;99863.37;4447089;32;34492;-70
2022/05/10 02:25:35;;;;;;;5.18;3.65;;;;;;;14.56;73.21;99865.00;4440444;32;33163;-70
2022/05/10 02:28:19;;;;;;;8.13;5.05;;;;;;;14.38;72.78;99860.06;4444264;32;33391;-71
2022/05/10 02:30:51;;;;;;;4.37;3.08;;;;;;;13.75;75.04;99850.69;4454197;32;34935;-70
2022/05/10 02:33:20;;;;;;;7.15;3.58;;;;;;;13.96;73.91;99857.28;4439966;32;34442;-71
2022/05/10 02:35:50;;;;;;;6.40;3.55;;;;;;;13.43;76.00;99858.09;4454110;32;33693;-71
2022/05/10 02:38:20;;;;;;;6.00;3.65;;;;;;;13.82;74.40;99853.16;4453424;32;34849;-70
2022/05/10 02:40:51;;;;;;;5.22;3.50;;;;;;;13.49;75.43;99851.06;4451745;32;35230;-71
2022/05/10 02:43:22;;;;;;;5.87;4.37;;;;;;;14.17;72.07;99849.09;4454553;32;35016;-70
2022/05/10 02:45:51;;;;;;;6.62;3.97;;;;;;;13.67;73.87;99847.31;4454941;32;33351;-71
2022/05/10 02:48:25;;;;;;;15.15;4.50;;;;;;;13.19;75.37;99846.19;4456462;32;33939;-70
2022/05/10 02:50:53;;;;;;;5.70;3.67;;;;;;;13.31;75.53;99847.81;4457860;32;35894;-71
2022/05/10 02:53:21;;;;;;;5.37;3.40;;;;;;;13.48;74.46;99842.31;4458993;32;35164;-70
2022/05/10 02:56:06;;;;;;;5.45;3.85;;;;;;;12.85;76.19;99851.00;4444735;32;34148;-71
2022/05/10 02:58:45;;;;;;;8.07;5.03;;;;;;;12.89;77.05;99858.75;4455461;32;33770;-70
2022/05/10 03:01:45;;;;;;;8.73;3.72;;;;;;;13.33;73.71;99853.03;4455332;32;35871;-70
2022/05/10 03:04:17;;;;;;;4.85;3.40;;;;;;;13.55;73.30;99848.34;4439688;32;34943;-76
2022/05/10 03:06:46;;;;;;;6.78;3.47;;;;;;;13.20;73.16;99857.50;4441831;32;33518;-73
2022/05/10 03:09:14;;;;;;;5.37;4.05;;;;;;;13.12;73.36;99854.16;4471114;32;34719;-76
2022/05/10 03:11:43;;;;;;;7.47;4.15;;;;;;;12.97;74.15;99850.84;4468463;32;35888;-71
2022/05/10 03:14:12;;;;;;;4.90;3.70;;;;;;;12.83;75.76;99858.84;4455165;32;35147;-71
2022/05/10 03:16:39;;;;;;;7.62;4.05;;;;;;;13.32;73.27;99848.66;4450099;32;33340;-70
2022/05/10 03:19:08;;;;;;;7.40;3.83;;;;;;;12.81;75.15;99854.50;4455585;32;33649;-76
2022/05/10 03:21:37;;;;;;;6.05;3.80;;;;;;;13.05;74.04;99848.97;4455640;32;35053;-76
2022/05/10 03:24:06;;;;;;;5.55;3.60;;;;;;;12.33;76.30;99853.28;4455626;32;34827;-71
2022/05/10 03:26:35;;;;;;;12.05;4.50;;;;;;;12.18;77.42;99853.41;4454910;32;33502;-76
2022/05/10 03:29:04;;;;;;;5.80;3.97;;;;;;;12.54;76.49;99851.31;4455586;32;33796;-75
2022/05/10 03:31:31;;;;;;;5.87;3.92;;;;;;;12.83;76.01;99850.13;4455756;32;35902;-75
2022/05/10 03:36:46;;;;;;;6.55;4.00;;;;;;;12.61;76.58;99862.56;4469991;32;34324;-70
2022/05/10 03:39:16;;;;;;;8.00;4.68;;;;;;;12.67;75.24;99852.94;4455452;32;34058;-75
2022/05/10 03:41:44;;;;;;;5.80;3.72;;;;;;;13.02;74.72;99856.87;4455333;32;35884;-70
2022/05/10 03:44:11;;;;;;;6.07;3.65;;;;;;;12.80;74.93;99856.25;4455458;32;34666;-76
2022/05/10 03:46:39;;;;;;;6.43;4.10;;;;;;;12.94;74.33;99848.25;4461848;32;33427;-73
2022/05/10 03:49:07;;;;;;;5.95;3.95;;;;;;;13.09;74.71;99852.41;4469776;32;33979;-72
2022/05/10 03:51:35;;;;;;;8.38;4.37;;;;;;;12.80;75.17;99852.78;4470765;32;35115;-78
2022/05/10 03:54:03;;;;;;;8.63;4.10;;;;;;;13.05;75.33;99851.59;4469100;32;34523;-77
2022/05/10 03:56:31;;;;;;;6.45;4.30;;;;;;;13.11;75.54;99849.78;4470769;32;33413;-71
2022/05/10 03:59:00;;;;;;;6.20;4.20;;;;;;;13.31;75.27;99847.81;4456312;32;34056;-71
2022/05/10 04:01:31;;;;;;;6.37;4.25;;;;;;;13.21;76.03;99849.66;4454604;32;34279;-77
2022/05/10 04:04:00;;;;;;;7.20;3.90;;;;;;;13.49;76.42;99849.31;4455019;32;34589;-78
2022/05/10 04:06:30;;;;;;;5.95;3.97;;;;;;;13.43;76.11;99849.41;4454056;32;32715;-77
2022/05/10 04:08:58;;;;;;;6.30;4.25;;;;;;;14.02;74.99;99849.34;4455514;32;34752;-76
2022/05/10 04:11:28;;;;;;;6.40;4.50;;;;;;;14.19;73.82;99847.31;4470847;32;35779;-78
2022/05/10 04:13:56;;;;;;;7.95;4.30;;;;;;;13.48;78.77;99844.09;4456990;32;35183;-75
2022/05/10 04:16:24;;;;;;;5.20;3.70;;;;;;;14.37;74.64;99850.50;4456678;32;33627;-73
2022/05/10 04:18:53;;;;;;;6.50;4.57;;;;;;;14.33;75.64;99851.44;4454226;32;34776;-77
2022/05/10 04:21:20;;;;;;;5.87;3.55;;;;;;;14.84;72.59;99856.63;4469462;32;34883;-78
2022/05/10 04:23:48;;;;;;;6.62;4.20;;;;;;;14.92;73.25;99859.94;4457841;32;35210;-77
2022/05/10 04:26:18;;;;;;;8.00;4.43;;;;;;;15.31;72.32;99861.78;4454906;32;33380;-69
2022/05/10 04:28:46;;;;;;;5.10;3.58;;;;;;;15.42;72.64;99861.53;4465909;32;34703;-70
2022/05/10 04:31:14;;;;;;;5.37;3.70;;;;;;;15.45;72.82;99862.31;4470510;32;34922;-69
2022/05/10 04:33:42;;;;;;;5.62;3.75;;;;;;;16.04;71.36;99859.25;4469412;32;34384;-70
2022/05/10 04:36:10;;;;;;;5.43;3.45;;;;;;;15.91;72.37;99863.91;4469363;32;33689;-70
2022/05/10 04:38:46;;;;;;;6.70;4.18;;;;;;;16.38;71.21;99866.25;4466228;32;34762;-70
2022/05/10 04:41:27;;;;;;;4.25;3.10;;;;;;;16.51;71.28;99865.94;4459259;32;36007;-71
2022/05/10 04:44:03;;;;;;;6.43;3.58;;;;;;;16.61;72.25;99870.06;4470551;32;35262;-71
2022/05/10 04:46:32;;;;;;;4.68;3.25;;;;;;;16.76;72.44;99866.97;4462730;32;33410;-70
2022/05/10 04:49:01;;;;;;;5.37;3.75;;;;;;;16.51;72.60;99873.81;4454898;32;34626;-74
2022/05/10 04:51:33;;;;;;;5.75;3.67;;;;;;;17.08;69.98;99873.13;4463550;32;34850;-76
2022/05/10 04:54:01;;;;;;;4.78;3.40;;;;;;;17.63;68.84;99879.37;4465547;32;34899;-71
2022/05/10 04:56:29;;;;;;;5.53;3.65;;;;;;;17.47;69.55;99878.13;4455115;32;33547;-74
2022/05/10 04:58:57;;;;;;;6.85;3.55;;;;;;;17.76;69.01;99871.09;4454845;32;33834;-72
2022/05/10 05:01:27;;;;;;;7.62;4.03;;;;;;;18.15;67.39;99882.13;4455412;32;35158;-74
2022/05/10 05:03:56;;;;;;;5.45;4.03;;;;;;;18.23;69.16;99874.00;4454876;32;33601;-73
2022/05/10 05:06:27;;;;;;;5.18;3.33;;;;;;;18.40;68.35;99873.41;4453693;32;34526;-72
2022/05/10 05:08:55;;;;;;;6.60;3.97;;;;;;;17.76;71.03;99876.38;4469202;32;34895;-71
2022/05/10 05:11:23;;;;;;;6.60;4.10;;;;;;;18.09;68.85;99878.84;4469092;32;35802;-72
2022/05/10 05:13:52;;;;;;;6.55;4.03;;;;;;;18.48;64.10;99883.69;4470392;32;34304;-72
2022/05/10 05:16:21;;;;;;;5.60;3.20;;;;;;;18.53;58.33;99876.47;4467206;32;33504;-70
2022/05/10 05:18:49;;;;;;;4.72;3.37;;;;;;;18.87;58.98;99889.38;4469643;32;34239;-75
2022/05/10 05:21:17;;;;;;;4.35;3.17;;;;;;;19.64;56.59;99888.25;4468905;32;35462;-75
2022/05/10 05:23:46;;;;;;;6.30;3.47;;;;;;;19.32;57.93;99895.63;4470433;32;35295;-77
2022/05/10 05:26:14;;;;;;;4.70;3.20;;;;;;;19.74;56.20;99891.44;4465826;32;34274;-74
2022/05/10 05:28:41;;;;;;;9.75;3.08;;;;;;;19.22;56.01;99891.59;4454819;32;33905;-71
2022/05/10 05:31:12;;;;;;;7.47;3.60;;;;;;;19.20;54.11;99898.72;4455336;32;34923;-70
2022/05/10 05:33:42;;;;;;;10.13;4.12;;;;;;;19.70;53.71;99898.59;4455400;32;35235;-70
2022/05/10 05:36:10;;;;;;;6.30;3.45;;;;;;;19.31;55.24;99899.22;4468785;32;34037;-76
2022/05/10 05:38:40;;;;;;;8.13;3.92;;;;;;;19.09;55.33;99896.50;4462505;32;33229;-72
2022/05/10 05:41:08;;;;;;;5.18;3.30;;;;;;;19.03;55.16;99902.87;4454209;32;35986;-78
2022/05/10 05:43:36;;;;;;;5.80;3.55;;;;;;;19.22;56.68;99907.44;4454551;32;34565;-74
2022/05/10 05:46:05;;;;;;;6.87;3.37;;;;;;;19.88;53.49;99907.59;4455587;32;33609;-76
2022/05/10 05:48:33;;;;;;;6.10;3.65;;;;;;;20.06;51.60;99900.69;4456514;32;33913;-80
2022/05/10 05:51:01;;;;;;;13.00;5.70;;;;;;;19.71;54.48;99900.28;4459066;32;34925;-78
2022/05/10 05:53:28;;;;;;;12.20;5.90;;;;;;;19.99;55.10;99904.50;4454548;32;34467;-71
2022/05/10 05:56:04;;;;;;;96.78;22.62;;;;;;;20.12;54.79;99904.84;4453572;32;33778;-79
2022/05/10 05:58:32;;;;;;;4.85;3.05;;;;;;;20.83;52.50;99911.56;4445603;32;33946;-69
2022/05/10 06:01:00;;;;;;;18.20;6.10;;;;;;;20.12;51.60;99911.03;4456087;32;35144;-70
2022/05/10 06:03:28;;;;;;;16.00;6.10;;;;;;;20.51;51.18;99901.50;4465071;32;34448;-78
2022/05/10 06:06:02;;;;;;;76.30;16.45;;;;;;;20.78;50.44;99904.75;4454527;32;34428;-69
2022/05/10 06:08:43;;;;;;;67.87;10.43;;;;;;;21.97;48.40;99900.16;4451837;32;34599;-70
2022/05/10 06:11:21;;;;;;;254.30;34.58;;;;;;;22.09;48.90;99899.56;4453988;32;35057;-70
2022/05/10 06:14:01;;;;;;;311.30;46.90;;;;;;;21.71;49.68;99912.03;4454214;32;35303;-71
2022/05/10 06:16:32;;;;;;;19.80;5.07;;;;;;;22.76;46.49;99910.37;4459362;32;33369;-69
2022/05/10 06:19:00;;;;;;;221.75;26.17;;;;;;;23.22;43.02;99915.91;4454166;32;34077;-69
2022/05/10 06:21:29;;;;;;;209.62;23.62;;;;;;;23.32;43.63;99915.44;4455873;32;35110;-69
2022/05/10 06:23:57;;;;;;;171.07;22.33;;;;;;;23.16;43.26;99910.94;4463894;32;34509;-70
2022/05/10 06:26:25;;;;;;;271.17;37.60;;;;;;;22.91;43.43;99912.22;4457177;32;33440;-69
2022/05/10 06:28:53;;;;;;;18.52;4.07;;;;;;;22.91;42.81;99911.38;4469686;32;33895;-70
2022/05/10 06:31:20;;;;;;;11.98;4.07;;;;;;;22.95;45.05;99917.37;4466151;32;35035;-69
2022/05/10 06:33:52;;;;;;;6.15;3.03;;;;;;;23.18;43.68;99914.38;4454281;32;35237;-69
2022/05/10 06:36:22;;;;;;;5.60;3.45;;;;;;;22.63;43.13;99918.13;4453465;32;33538;-70
2022/05/10 06:38:50;;;;;;;16.33;5.70;;;;;;;22.35;46.07;99918.66;4453975;32;33717;-69
2022/05/10 06:41:18;;;;;;;5.72;3.25;;;;;;;22.51;44.91;99916.94;4452815;32;35047;-71
2022/05/10 06:43:45;;;;;;;22.37;6.72;;;;;;;23.18;40.62;99914.38;4453349;32;35268;-69
2022/05/10 06:46:20;;;;;;;8.80;2.58;;;;;;;23.99;41.44;99914.34;4453483;32;32784;-68
2022/05/10 06:48:48;;;;;;;6.65;3.00;;;;;;;24.31;37.50;99916.94;4453656;32;33930;-68
2022/05/10 06:51:19;;;;;;;4.40;2.78;;;;;;;23.97;37.72;99904.75;4454318;32;35170;-68
2022/05/10 06:53:48;;;;;;;19.92;5.10;;;;;;;24.33;37.00;99911.53;4469321;32;35178;-68
2022/05/10 06:56:16;;;;;;;5.05;2.42;;;;;;;23.64;38.70;99911.84;4467355;32;34295;-68
2022/05/10 06:58:44;;;;;;;5.90;2.55;;;;;;;23.78;40.59;99916.41;4452966;32;34690;-68
2022/05/10 07:01:12;;;;;;;5.87;2.80;;;;;;;24.61;35.74;99908.13;4452605;32;35018;-68
2022/05/10 07:03:46;;;;;;;4.07;2.45;;;;;;;24.05;36.31;99910.47;4453622;32;34636;-69
2022/05/10 07:06:16;;;;;;;6.85;2.58;;;;;;;24.72;33.13;99905.66;4453134;32;33426;-68
2022/05/10 07:08:45;;;;;;;6.07;2.20;;;;;;;24.41;34.04;99918.13;4469105;32;33950;-69
2022/05/10 07:11:13;;;;;;;6.05;2.42;;;;;;;25.14;30.90;99911.97;4467967;32;35902;-68
2022/05/10 07:13:41;;;;;;;3.97;2.45;;;;;;;25.41;31.02;99908.56;4452787;32;35233;-69
2022/05/10 07:16:09;;;;;;;5.18;2.67;;;;;;;25.45;31.33;99910.09;4453398;32;34413;-68
2022/05/10 07:18:37;;;;;;;11.20;3.55;;;;;;;25.23;32.23;99909.69;4464538;32;33591;-69
2022/05/10 07:21:04;;;;;;;4.05;2.42;;;;;;;24.63;34.81;99908.03;4453056;32;34974;-69
2022/05/10 07:23:33;;;;;;;4.32;2.40;;;;;;;25.03;31.75;99910.97;4466925;32;34438;-68
2022/05/10 07:26:04;;;;;;;33.60;10.60;;;;;;;25.41;32.03;99913.06;4468966;32;34220;-68
2022/05/10 07:28:33;;;;;;;5.68;2.95;;;;;;;25.16;34.83;99910.06;4453437;32;33939;-68
2022/05/10 07:31:01;;;;;;;5.07;2.60;;;;;;;24.98;34.36;99912.06;4454789;32;34936;-68
2022/05/10 07:33:29;;;;;;;8.05;3.22;;;;;;;25.34;34.20;99909.91;4454956;32;35222;-69
2022/05/10 07:38:44;;;;;;;3.87;2.30;;;;;;;25.15;36.68;99908.38;4469311;32;33377;-69
2022/05/10 07:41:12;;;;;;;3.30;2.50;;;;;;;24.81;37.41;99904.25;4471201;32;34690;-69
2022/05/10 07:43:40;;;;;;;4.80;2.95;;;;;;;24.56;40.50;99915.53;4455120;32;34645;-69
2022/05/10 07:46:08;;;;;;;11.07;4.45;;;;;;;25.62;36.49;99917.00;4457573;32;34230;-68
2022/05/10 07:48:36;;;;;;;7.87;2.87;;;;;;;25.87;34.90;99915.41;4469639;32;34056;-69
2022/05/10 07:51:05;;;;;;;7.50;2.92;;;;;;;25.88;33.04;99915.31;4470825;32;36180;-68
2022/05/10 07:53:33;;;;;;;3.80;2.80;;;;;;;26.14;33.67;99911.91;4456446;32;35229;-69
2022/05/10 07:56:02;;;;;;;4.50;2.83;;;;;;;26.89;32.52;99912.19;4461650;32;33282;-67
2022/05/10 07:58:30;;;;;;;4.80;2.80;;;;;;;26.42;31.45;99911.81;4456557;32;34140;-69
2022/05/10 08:00:59;;;;;;;4.45;2.62;;;;;;;27.31;30.10;99909.31;4453394;32;35893;-67
2022/05/10 08:03:28;;;;;;;7.60;2.80;;;;;;;26.28;30.97;99907.38;4467051;32;35077;-68
2022/05/10 08:05:56;;;;;;;5.03;3.05;;;;;;;25.43;33.34;99912.00;4470880;32;34237;-67
2022/05/10 08:08:25;;;;;;;6.20;2.90;;;;;;;25.38;33.69;99916.78;4469513;32;34073;-69
2022/05/10 08:11:03;;;;;;;21.12;7.30;;;;;;;24.91;35.06;99909.91;4470749;32;35038;-67
2022/05/10 08:13:32;;;;;;;14.18;5.28;;;;;;;26.04;34.44;99906.34;4469204;32;34685;-68
2022/05/10 08:16:02;;;;;;;5.80;3.15;;;;;;;26.05;34.28;99902.75;4455530;32;33538;-69
2022/05/10 08:18:30;;;;;;;15.48;6.47;;;;;;;26.47;33.29;99900.78;4466761;32;33912;-69
2022/05/10 08:20:58;;;;;;;4.25;3.08;;;;;;;27.63;32.21;99898.94;4458112;32;35866;-68
2022/05/10 08:23:29;;;;;;;17.98;5.50;;;;;;;27.02;34.31;99898.84;4456137;32;34451;-70
2022/05/10 08:25:58;;;;;;;17.40;6.53;;;;;;;27.71;32.18;99899.25;4452955;32;33013;-68
2022/05/10 08:28:29;;;;;;;11.35;4.05;;;;;;;27.86;32.82;99901.75;4444267;32;34047;-68
2022/05/10 08:30:58;;;;;;;6.28;2.87;;;;;;;27.42;34.07;99898.69;4467429;32;36061;-68
2022/05/10 08:33:33;;;;;;;7.70;3.60;;;;;;;27.28;30.72;99897.00;4457856;32;34451;-68
2022/05/10 08:36:01;;;;;;;4.18;2.80;;;;;;;26.85;32.65;99892.00;4454883;32;34389;-68
2022/05/10 08:38:31;;;;;;;6.07;3.53;;;;;;;27.20;30.86;99897.53;4454607;32;33966;-69
2022/05/10 08:41:19;;;;;;;5.15;2.50;;;;;;;27.10;33.72;99900.97;4457783;32;35724;-68
2022/05/10 08:44:10;;;;;;;5.45;3.05;;;;;;;26.18;32.95;99887.59;4456071;32;34528;-70
2022/05/10 08:46:43;;;;;;;9.27;3.42;;;;;;;26.29;36.89;99894.87;4454121;32;33931;-74
2022/05/10 08:49:39;;;;;;;15.88;6.05;;;;;;;26.57;33.64;99893.87;4441294;32;34228;-72
2022/05/10 08:52:07;;;;;;;3.70;2.67;;;;;;;26.73;33.46;99892.84;4444624;32;36001;-76
2022/05/10 08:54:37;;;;;;;5.57;2.75;;;;;;;27.00;33.03;99890.94;4454944;32;34347;-74
2022/05/10 08:57:33;;;;;;;4.57;2.42;;;;;;;26.43;38.01;99889.47;4464410;32;34372;-74
2022/05/10 09:00:36;;;;;;;11.23;4.40;;;;;;;26.84;33.56;99884.94;4456842;32;33722;-72
2022/05/10 09:03:24;;;;;;;6.68;3.83;;;;;;;26.81;33.04;99890.50;4468123;32;35790;-73
2022/05/10 09:05:57;;;;;;;5.05;2.80;;;;;;;27.05;33.39;99888.78;4462822;32;34473;-72
2022/05/10 09:08:37;;;;;;;6.32;3.25;;;;;;;27.73;33.42;99888.44;4450935;32;34329;-73
2022/05/10 09:11:09;;;;;;;6.60;3.37;;;;;;;27.41;30.89;99884.47;4456741;32;34022;-74
2022/05/10 09:13:37;;;;;;;6.35;3.55;;;;;;;28.05;32.10;99882.56;4469430;32;34753;-74
2022/05/10 09:16:08;;;;;;;5.10;3.05;;;;;;;27.54;29.84;99878.22;4470471;32;35250;-73
2022/05/10 09:18:42;;;;;;;13.38;4.60;;;;;;;27.45;30.17;99884.25;4469520;32;33603;-73
2022/05/10 09:21:19;;;;;;;6.47;3.87;;;;;;;26.93;32.93;99884.31;4466440;32;34723;-72
2022/05/10 09:24:08;;;;;;;6.53;3.53;;;;;;;26.59;37.09;99881.25;4454054;32;34991;-74
2022/05/10 09:26:42;;;;;;;5.87;3.35;;;;;;;27.38;34.99;99879.34;4470758;32;34557;-74
2022/05/10 09:29:29;;;;;;;6.15;4.15;;;;;;;27.10;33.68;99882.25;4454726;32;34200;-73
2022/05/10 09:35:14;;;;;;;5.55;3.90;;;;;;;27.74;32.06;99880.31;4454103;32;35138;-73
2022/05/10 09:37:48;;;;;;;4.90;3.50;;;;;;;27.18;34.78;99883.41;4454152;32;35195;-71
2022/05/10 09:40:30;;;;;;;6.03;4.22;;;;;;;26.93;32.77;99884.31;4454152;32;33387;-73
2022/05/10 09:43:27;;;;;;;7.57;4.40;;;;;;;27.43;31.30;99874.50;4460550;32;33983;-73
2022/05/10 09:46:19;;;;;;;;;;;;;;;26.04;35.54;99871.66;4465377;32;34939;-72
2022/05/10 09:48:50;;;;;;;6.22;3.87;;;;;;;26.72;34.18;99880.44;4469169;32;34825;-73
2022/05/10 09:51:26;;;;;;;9.00;4.57;;;;;;;25.91;35.71;99875.09;4469687;32;34351;-73
2022/05/10 09:53:56;;;;;;;6.65;3.22;;;;;;;25.82;36.29;99874.84;4457165;32;34116;-73
2022/05/10 09:56:24;;;;;;;6.05;3.50;;;;;;;27.54;33.19;99878.22;4454491;32;35563;-74
2022/05/10 09:58:58;;;;;;;6.87;3.97;;;;;;;26.90;32.83;99870.31;4462384;32;35081;-71
2022/05/10 10:01:48;;;;;;;18.60;5.22;;;;;;;26.86;34.53;99872.34;4454952;32;34282;-71
2022/05/10 10:04:22;;;;;;;4.40;2.75;;;;;;;25.27;36.88;99873.94;4440119;32;33919;-73
2022/05/10 10:07:28;;;;;;;3.75;2.85;;;;;;;26.14;34.12;99859.41;4440663;32;34945;-73
2022/05/10 10:10:15;;;;;;;6.28;3.70;;;;;;;25.71;35.09;99857.75;4453540;32;35291;-72
2022/05/10 10:12:46;;;;;;;8.55;3.47;;;;;;;25.70;34.52;99852.50;4457468;32;34371;-71
2022/05/10 10:15:20;;;;;;;5.35;3.50;;;;;;;25.30;36.57;99853.25;4466449;32;33909;-71
2022/05/10 10:18:08;;;;;;;15.75;6.85;;;;;;;24.81;37.23;99850.97;4440213;32;35888;-69
2022/05/10 10:20:47;;;;;;;7.50;3.97;;;;;;;26.08;36.35;99850.00;4454173;32;35252;-69
2022/05/10 10:23:37;;;;;;;7.28;4.75;;;;;;;26.17;35.43;99840.53;4460340;32;33503;-69
2022/05/10 10:26:34;;;;;;;16.70;4.70;;;;;;;26.24;33.70;99839.16;4453485;32;33988;-68
2022/05/10 10:29:06;;;;;;;6.43;4.57;;;;;;;26.14;34.84;99835.38;4454397;32;35399;-69
2022/05/10 10:31:43;;;;;;;5.80;3.92;;;;;;;27.32;33.16;99833.47;4469727;32;34475;-69
2022/05/10 10:34:33;;;;;;;5.55;3.97;;;;;;;26.43;35.32;99829.88;4452925;32;34219;-68
2022/05/10 10:37:19;;;;;;;9.98;4.30;;;;;;;25.50;37.06;99825.34;4469511;32;33732;-70
2022/05/10 10:40:27;;;;;;;6.57;4.15;;;;;;;25.30;36.02;99828.44;4452938;32;35813;-68
2022/05/10 10:43:44;;;;;;;5.60;3.22;;;;;;;25.97;32.88;99817.00;4440085;32;35136;-72
2022/05/10 10:46:26;;;;;;;5.85;3.58;;;;;;;26.03;34.13;99819.22;4444852;32;33599;-69
2022/05/10 10:48:56;;;;;;;8.20;3.22;;;;;;;26.17;34.71;99811.16;4455829;32;34077;-72
2022/05/10 10:51:29;;;;;;;4.87;3.40;;;;;;;27.26;31.24;99810.66;4460237;32;35091;-73
2022/05/10 10:53:58;;;;;;;6.32;3.37;;;;;;;27.03;34.04;99804.31;4453911;32;34446;-74
2022/05/10 10:56:38;;;;;;;5.32;3.37;;;;;;;27.46;30.99;99795.00;4459166;32;33541;-72
2022/05/10 10:59:20;;;;;;;7.03;3.60;;;;;;;27.17;31.67;99795.31;4454452;32;34770;-73
2022/05/10 11:02:02;;;;;;;8.00;3.85;;;;;;;26.32;34.21;99795.06;4446260;32;35998;-73
2022/05/10 11:04:34;;;;;;;4.75;3.12;;;;;;;26.99;35.01;99787.66;4441608;32;35327;-73
2022/05/10 11:07:08;;;;;;;5.18;2.97;;;;;;;27.80;32.13;99796.03;4460399;32;32533;-72
2022/05/10 11:10:23;;;;;;;7.60;3.33;;;;;;;27.80;33.32;99786.16;4455864;32;34207;-73
2022/05/10 11:13:05;;;;;;;14.95;5.85;;;;;;;27.60;31.76;99776.09;4431893;32;35827;-73
2022/05/10 11:15:41;;;;;;;8.32;3.42;;;;;;;27.79;32.32;99778.25;4441239;32;35212;-70
2022/05/10 11:18:16;;;;;;;8.45;3.35;;;;;;;26.80;32.85;99788.09;4442356;32;33451;-73
2022/05/10 11:21:22;;;;;;;8.23;3.72;;;;;;;27.27;33.25;99798.16;4455500;32;33890;-72
2022/05/10 11:24:12;;;;;;;6.68;2.95;;;;;;;27.03;33.79;99810.50;4455711;32;35912;-73
2022/05/10 11:26:46;;;;;;;5.35;2.35;;;;;;;25.66;37.23;99802.97;4459788;32;35265;-69
2022/05/10 11:29:18;;;;;;;8.52;2.83;;;;;;;24.26;35.71;99801.06;4455762;32;33494;-71
2022/05/10 11:31:59;;;;;;;6.28;2.67;;;;;;;22.94;39.47;99799.66;4467334;32;33911;-72
2022/05/10 11:34:45;;;;;;;6.90;3.42;;;;;;;21.75;43.55;99805.78;4471170;32;34889;-72
2022/05/10 11:37:15;;;;;;;;;;;;;;;20.79;46.92;99805.91;4460344;32;34417;-71
2022/05/10 11:40:01;;;;;;;8.32;3.62;;;;;;;20.07;53.08;99828.41;4454610;32;34096;-71
2022/05/10 11:42:57;;;;;;;8.80;3.35;;;;;;;19.26;59.06;99837.78;4466609;32;33981;-69
2022/05/10 11:45:39;;;;;;;10.63;3.45;;;;;;;18.94;58.66;99834.59;4471206;32;34893;-69
2022/05/10 11:48:22;;;;;;;6.00;3.30;;;;;;;18.84;59.89;99823.50;4441785;32;34559;-72
2022/05/10 11:51:38;;;;;;;5.72;2.87;;;;;;;18.13;67.53;99820.72;4455409;32;33401;-72
2022/05/10 11:54:38;;;;;;;8.63;4.47;;;;;;;18.25;68.05;99811.53;4471168;32;34727;-72
2022/05/10 11:57:17;;;;;;;5.37;3.00;;;;;;;18.74;64.04;99800.97;4455715;32;35006;-72
2022/05/10 11:59:45;;;;;;;12.00;6.70;;;;;;;18.57;56.21;99807.75;4471067;32;35317;-72
2022/05/10 12:02:28;;;;;;;5.37;3.28;;;;;;;18.29;64.69;99799.94;4465071;32;34488;-69
2022/05/10 12:05:30;;;;;;;6.97;3.70;;;;;;;18.91;62.49;99781.91;4458183;32;33961;-71
2022/05/10 12:08:01;;;;;;;6.22;4.25;;;;;;;18.46;67.80;99782.66;4454812;32;35001;-67
2022/05/10 12:10:36;;;;;;;6.90;4.37;;;;;;;18.49;67.06;99759.69;4455168;32;35311;-69
2022/05/10 12:13:05;;;;;;;9.32;5.15;;;;;;;18.45;68.99;99763.34;4455491;32;33004;-68
2022/05/10 12:21:21;;;;;;;5.07;3.42;;;;;;;18.68;68.88;99754.59;4466719;32;34245;-72
2022/05/10 12:24:20;;;;;;;7.93;3.50;;;;;;;19.72;60.12;99738.19;4455177;32;33572;-71